createdAt,value
2024-03-25T00:03:44.898Z,10.40
2024-03-25T00:07:45.840Z,14.27
2024-03-25T00:11:46.930Z,18.50
2024-03-25T00:15:48.100Z,14.53
2024-03-25T00:19:52.656Z,6.20
2024-03-25T00:23:55.709Z,9.97
2024-03-25T00:27:58.312Z,11.77
2024-03-25T00:31:59.497Z,12.53
2024-03-25T00:36:00.763Z,12.00
2024-03-25T00:40:02.319Z,5.77
2024-03-25T00:44:03.378Z,8.27
2024-03-25T00:48:04.922Z,9.30
2024-03-25T00:52:05.919Z,12.80
2024-03-25T00:56:06.886Z,11.13
2024-03-25T01:00:08.947Z,9.23
2024-03-25T01:04:10.036Z,9.17
2024-03-25T01:08:12.397Z,16.17
2024-03-25T01:12:13.392Z,10.93
2024-03-25T01:16:14.370Z,12.07
2024-03-25T01:20:16.429Z,15.03
2024-03-25T01:24:17.508Z,8.53
2024-03-25T01:28:19.613Z,10.97
2024-03-25T01:32:20.761Z,16.07
2024-03-25T01:36:22.048Z,13.60
2024-03-25T01:40:23.132Z,13.57
2024-03-25T01:44:25.007Z,14.63
2024-03-25T01:48:25.959Z,24.60
2024-03-25T01:52:28.727Z,11.63
2024-03-25T01:56:33.282Z,13.67
2024-03-25T02:00:35.191Z,15.30
2024-03-25T02:04:36.674Z,12.30
2024-03-25T02:08:38.958Z,16.80
2024-03-25T02:12:42.441Z,18.33
2024-03-25T02:16:43.471Z,17.00
2024-03-25T02:20:45.565Z,12.63
2024-03-25T02:24:48.140Z,10.60
2024-03-25T02:28:49.252Z,14.80
2024-03-25T02:32:50.808Z,17.50
2024-03-25T02:36:52.503Z,11.77
2024-03-25T02:40:53.747Z,11.20
2024-03-25T02:44:57.235Z,8.67
2024-03-25T02:48:58.346Z,14.50
2024-03-25T02:52:59.399Z,11.70
2024-03-25T02:57:00.476Z,21.33
2024-03-25T03:01:01.410Z,18.90
2024-03-25T03:05:04.579Z,19.00
2024-03-25T03:09:05.938Z,12.70
2024-03-25T03:13:07.070Z,12.53
2024-03-25T03:17:08.047Z,12.60
2024-03-25T03:21:09.168Z,14.53
2024-03-25T03:25:10.101Z,13.30
2024-03-25T03:29:11.292Z,14.33
2024-03-25T03:33:12.393Z,23.47
2024-03-25T03:37:13.484Z,14.23
2024-03-25T03:41:14.455Z,9.50
2024-03-25T03:45:15.582Z,18.03
2024-03-25T03:49:16.510Z,11.47
2024-03-25T03:53:17.987Z,13.63
2024-03-25T03:57:19.115Z,14.27
2024-03-25T04:01:20.184Z,19.03
2024-03-25T04:05:21.363Z,11.07
2024-03-25T04:09:24.119Z,16.07
2024-03-25T04:13:25.100Z,6.97
2024-03-25T04:17:26.221Z,15.27
2024-03-25T04:21:27.301Z,17.30
2024-03-25T04:25:28.415Z,16.50
2024-03-25T04:29:29.763Z,18.27
2024-03-25T04:33:30.744Z,13.60
2024-03-25T04:37:31.875Z,12.90
2024-03-25T04:41:32.853Z,15.53
2024-03-25T04:45:33.814Z,11.33
2024-03-25T04:49:34.935Z,8.57
2024-03-25T04:53:36.036Z,18.17
2024-03-25T04:57:37.135Z,14.37
2024-03-25T05:01:38.255Z,18.87
2024-03-25T05:05:39.267Z,13.23
2024-03-25T05:09:40.187Z,8.67
2024-03-25T05:13:41.266Z,13.97
2024-03-25T05:17:42.670Z,13.37
2024-03-25T05:21:43.866Z,16.63
2024-03-25T05:25:45.234Z,16.47
2024-03-25T05:29:46.410Z,15.63
2024-03-25T05:33:47.580Z,16.50
2024-03-25T05:37:48.667Z,15.27
2024-03-25T05:41:50.575Z,16.03
2024-03-25T05:45:53.979Z,17.53
2024-03-25T05:49:54.938Z,6.53
2024-03-25T05:53:56.091Z,12.43
2024-03-25T05:57:57.018Z,12.83
2024-03-25T06:01:58.181Z,15.60
2024-03-25T06:05:59.307Z,14.07
2024-03-25T06:10:00.337Z,21.50
2024-03-25T06:14:01.540Z,10.73
2024-03-25T06:18:02.636Z,26.83
2024-03-25T06:22:03.970Z,9.30
2024-03-25T06:26:05.053Z,13.60
2024-03-25T06:30:25.948Z,8.97
2024-03-25T06:34:26.901Z,13.10
2024-03-25T06:38:28.023Z,12.30
2024-03-25T06:42:29.224Z,15.57
2024-03-25T06:46:30.252Z,13.83
2024-03-25T06:50:31.369Z,10.33
2024-03-25T06:54:32.461Z,14.80
2024-03-25T06:58:33.563Z,11.90
2024-03-25T07:02:35.063Z,12.60
2024-03-25T07:06:36.211Z,18.73
2024-03-25T07:10:37.362Z,13.27
2024-03-25T07:14:38.352Z,16.47
2024-03-25T07:18:39.377Z,16.80
2024-03-25T07:22:40.352Z,14.30
2024-03-25T07:26:41.649Z,12.83
2024-03-25T07:30:42.867Z,16.50
2024-03-25T07:34:43.994Z,15.60
2024-03-25T07:38:44.984Z,9.10
2024-03-25T07:42:46.019Z,18.53
2024-03-25T07:46:47.130Z,14.10
2024-03-25T07:50:48.269Z,12.00
2024-03-25T07:54:49.369Z,16.30
2024-03-25T07:58:50.400Z,14.60
2024-03-25T08:02:51.558Z,15.77
2024-03-25T08:06:52.551Z,18.07
2024-03-25T08:10:53.701Z,19.40
2024-03-25T08:14:54.766Z,16.50
2024-03-25T08:18:55.881Z,13.90
2024-03-25T08:22:56.882Z,13.17
2024-03-25T08:26:58.313Z,10.93
2024-03-25T08:30:59.334Z,10.57
2024-03-25T08:35:00.532Z,15.77
2024-03-25T08:39:01.676Z,11.33
2024-03-25T08:43:03.007Z,13.97
2024-03-25T08:47:04.511Z,11.80
2024-03-25T08:51:05.658Z,7.77
2024-03-25T08:55:07.650Z,10.63
2024-03-25T08:59:10.263Z,7.73
2024-03-25T09:03:11.275Z,10.00
2024-03-25T09:07:15.126Z,10.37
2024-03-25T09:11:16.155Z,11.87
2024-03-25T09:15:17.221Z,6.67
2024-03-25T09:19:18.337Z,9.70
2024-03-25T09:23:19.534Z,9.57
2024-03-25T09:27:20.702Z,9.30
2024-03-25T09:31:22.933Z,8.83
2024-03-25T09:35:24.075Z,5.70
2024-03-25T09:39:25.372Z,6.37
2024-03-25T09:43:30.225Z,14.07
2024-03-25T09:47:31.462Z,14.03
2024-03-25T09:51:32.638Z,9.50
2024-03-25T09:55:33.899Z,7.33
2024-03-25T09:59:35.590Z,5.10
2024-03-25T10:03:36.786Z,11.13
2024-03-25T10:07:38.150Z,5.63
2024-03-25T10:11:39.271Z,11.20
2024-03-25T10:15:40.251Z,7.93
2024-03-25T10:19:41.262Z,4.70
2024-03-25T10:23:45.591Z,7.37
2024-03-25T10:27:58.035Z,5.40
2024-03-25T10:32:05.362Z,6.87
2024-03-25T10:36:09.403Z,3.00
2024-03-25T10:40:13.016Z,3.90
2024-03-25T10:44:14.117Z,6.40
2024-03-25T10:48:23.198Z,5.07
2024-03-25T10:52:26.994Z,10.97
2024-03-25T10:56:28.160Z,8.50
2024-03-25T11:00:29.714Z,3.13
2024-03-25T11:04:32.040Z,4.10
2024-03-25T11:08:33.015Z,20.50
2024-03-25T11:12:38.437Z,3.00
2024-03-25T11:16:40.099Z,6.93
2024-03-25T11:20:41.300Z,6.87
2024-03-25T11:24:44.383Z,6.43
2024-03-25T11:28:45.907Z,7.07
2024-03-25T11:32:55.729Z,4.23
2024-03-25T11:36:58.141Z,3.30
2024-03-25T11:40:59.445Z,4.43
2024-03-25T11:45:01.628Z,5.40
2024-03-25T11:49:05.023Z,4.47
2024-03-25T11:53:06.274Z,2.00
2024-03-25T11:57:08.746Z,6.23
2024-03-25T12:01:10.784Z,8.23
2024-03-25T12:05:12.310Z,4.30
2024-03-25T12:09:32.159Z,5.73
2024-03-25T12:13:33.285Z,4.23
2024-03-25T12:17:34.677Z,3.80
2024-03-25T12:21:37.188Z,3.77
2024-03-25T12:25:39.423Z,4.60
2024-03-25T12:29:41.052Z,7.87
2024-03-25T12:33:42.352Z,3.37
2024-03-25T12:37:45.180Z,4.23
2024-03-25T12:41:46.434Z,6.43
2024-03-25T12:45:47.711Z,6.10
2024-03-25T12:49:48.753Z,7.13
2024-03-25T12:53:49.967Z,3.47
2024-03-25T12:57:52.915Z,4.13
2024-03-25T13:01:54.206Z,3.77
2024-03-25T13:05:57.124Z,4.50
2024-03-25T13:09:58.637Z,2.67
2024-03-25T13:14:01.086Z,5.43
2024-03-25T13:18:02.536Z,4.70
2024-03-25T13:22:05.467Z,6.13
2024-03-25T13:26:06.921Z,6.37
2024-03-25T13:30:09.409Z,10.13
2024-03-25T13:34:10.532Z,8.97
2024-03-25T13:38:11.932Z,6.00
2024-03-25T13:42:13.017Z,4.57
2024-03-25T13:46:16.413Z,6.87
2024-03-25T13:50:17.641Z,8.43
2024-03-25T13:54:18.687Z,7.60
2024-03-25T13:58:19.839Z,6.67
2024-03-25T14:02:21.019Z,4.43
2024-03-25T14:06:22.130Z,4.77
2024-03-25T14:10:23.212Z,7.07
2024-03-25T14:14:24.526Z,7.67
2024-03-25T14:18:25.762Z,5.40
2024-03-25T14:22:26.780Z,8.77
2024-03-25T14:26:27.894Z,5.57
2024-03-25T14:30:31.496Z,12.23
2024-03-25T14:34:32.642Z,6.57
2024-03-25T14:38:35.034Z,5.67
2024-03-25T14:42:37.403Z,6.03
2024-03-25T14:46:38.555Z,6.40
2024-03-25T14:50:39.663Z,4.17
2024-03-25T14:54:40.930Z,5.23
2024-03-25T14:58:41.971Z,11.97
2024-03-25T15:02:43.096Z,7.30
2024-03-25T15:06:44.191Z,8.20
2024-03-25T15:10:48.303Z,7.33
2024-03-25T15:14:49.284Z,7.20
2024-03-25T15:18:51.620Z,7.33
2024-03-25T15:22:52.746Z,3.63
2024-03-25T15:26:53.762Z,12.93
2024-03-25T15:30:59.065Z,6.27
2024-03-25T15:35:00.948Z,5.20
2024-03-25T15:39:02.764Z,6.73
2024-03-25T15:43:04.064Z,7.63
2024-03-25T15:47:05.591Z,8.77
2024-03-25T15:51:07.735Z,3.33
2024-03-25T15:55:09.624Z,3.23
2024-03-25T15:59:10.616Z,5.60
2024-03-25T16:03:11.749Z,9.57
2024-03-25T16:07:13.303Z,8.10
2024-03-25T16:11:18.485Z,6.60
2024-03-25T16:15:19.481Z,7.67
2024-03-25T16:19:20.484Z,3.47
2024-03-25T16:23:21.595Z,8.33
2024-03-25T16:27:22.723Z,9.67
2024-03-25T16:31:23.884Z,5.10
2024-03-25T16:35:25.406Z,8.33
2024-03-25T16:39:26.614Z,6.57
2024-03-25T16:43:27.785Z,6.70
2024-03-25T16:47:29.090Z,5.77
2024-03-25T16:51:30.510Z,11.23
2024-03-25T16:55:31.622Z,5.13
2024-03-25T16:59:32.637Z,6.20
2024-03-25T17:03:35.868Z,11.73
2024-03-25T17:07:38.818Z,3.40
2024-03-25T17:11:40.133Z,7.87
2024-03-25T17:15:41.738Z,5.57
2024-03-25T17:19:42.830Z,3.50
2024-03-25T17:23:43.880Z,9.00
2024-03-25T17:27:45.806Z,6.90
2024-03-25T17:31:49.314Z,7.77
2024-03-25T17:35:50.328Z,5.47
2024-03-25T17:39:51.340Z,3.20
2024-03-25T17:43:52.471Z,3.97
2024-03-25T17:47:53.469Z,4.60
2024-03-25T17:51:55.115Z,5.10
2024-03-25T17:55:57.946Z,4.93
2024-03-25T17:59:59.382Z,8.17
2024-03-25T18:04:00.418Z,8.07
2024-03-25T18:08:01.388Z,5.90
2024-03-25T18:12:05.376Z,8.77
2024-03-25T18:16:06.769Z,8.50
2024-03-25T18:20:09.738Z,9.03
2024-03-25T18:24:12.374Z,8.50
2024-03-25T18:28:13.511Z,8.23
2024-03-25T18:32:14.476Z,6.10
2024-03-25T18:36:15.558Z,5.90
2024-03-25T18:40:17.084Z,11.23
2024-03-25T18:44:18.326Z,7.90
2024-03-25T18:48:20.968Z,9.23
2024-03-25T18:52:22.021Z,11.83
2024-03-25T18:56:24.973Z,15.50
2024-03-25T19:00:26.133Z,15.63
2024-03-25T19:04:27.109Z,11.63
2024-03-25T19:08:28.246Z,9.20
2024-03-25T19:12:29.264Z,12.00
2024-03-25T19:16:30.494Z,6.07
2024-03-25T19:20:31.607Z,5.43
2024-03-25T19:24:33.349Z,6.87
2024-03-25T19:28:34.347Z,4.27
2024-03-25T19:32:36.222Z,6.30
2024-03-25T19:36:37.325Z,9.73
2024-03-25T19:40:38.267Z,10.87
2024-03-25T19:44:39.279Z,8.07
2024-03-25T19:48:40.277Z,11.40
2024-03-25T19:52:41.380Z,14.43
2024-03-25T19:56:42.699Z,17.40
2024-03-25T20:00:43.723Z,14.77
2024-03-25T20:04:45.686Z,8.40
2024-03-25T20:08:46.704Z,11.70
2024-03-25T20:12:47.993Z,12.37
2024-03-25T20:16:49.002Z,11.93
2024-03-25T20:20:50.019Z,8.00
2024-03-25T20:24:50.999Z,4.23
2024-03-25T20:28:52.107Z,5.30
2024-03-25T20:32:54.150Z,8.43
2024-03-25T20:36:55.178Z,9.93
2024-03-25T20:40:56.145Z,9.37
2024-03-25T20:44:57.341Z,3.93
2024-03-25T20:48:58.348Z,11.93
2024-03-25T20:52:59.415Z,6.17
2024-03-25T20:57:00.425Z,7.10
2024-03-25T21:01:01.450Z,5.30
2024-03-25T21:05:03.892Z,9.10
2024-03-25T21:09:04.890Z,7.10
2024-03-25T21:13:05.876Z,5.03
2024-03-25T21:17:07.563Z,7.53
2024-03-25T21:21:08.544Z,7.23
2024-03-25T21:25:09.827Z,7.07
2024-03-25T21:29:11.371Z,6.80
2024-03-25T21:33:12.349Z,4.17
2024-03-25T21:37:13.354Z,3.80
2024-03-25T21:41:16.398Z,8.53
2024-03-25T21:45:17.387Z,8.17
2024-03-25T21:49:18.499Z,7.93
2024-03-25T21:53:19.680Z,4.53
2024-03-25T21:57:20.802Z,8.37
2024-03-25T22:01:22.249Z,6.43
2024-03-25T22:05:24.144Z,7.63
2024-03-25T22:09:25.475Z,6.20
2024-03-25T22:13:26.631Z,5.20
2024-03-25T22:17:28.868Z,3.90
2024-03-25T22:21:30.000Z,3.57
2024-03-25T22:25:31.282Z,3.90
2024-03-25T22:29:32.323Z,9.03
2024-03-25T22:33:33.340Z,5.00
2024-03-25T22:37:40.158Z,6.67
2024-03-25T22:41:37.324Z,3.33
2024-03-25T22:45:38.293Z,3.90
2024-03-25T22:49:39.263Z,6.60
2024-03-25T22:53:40.383Z,6.10
2024-03-25T22:57:41.424Z,4.97
2024-03-25T23:01:42.439Z,4.23
2024-03-25T23:05:43.436Z,6.37
2024-03-25T23:09:44.618Z,6.60
2024-03-25T23:13:45.577Z,5.73
2024-03-25T23:17:46.714Z,4.23
2024-03-25T23:21:47.689Z,7.90
2024-03-25T23:25:48.696Z,6.67
2024-03-25T23:29:49.718Z,6.87
2024-03-25T23:33:50.809Z,7.87
2024-03-25T23:37:52.034Z,4.93
2024-03-25T23:41:53.346Z,4.07
2024-03-25T23:45:57.124Z,4.53
2024-03-25T23:49:58.120Z,3.20
2024-03-25T23:53:59.251Z,7.67
2024-03-25T23:58:00.226Z,6.93
